createdAt,value
2019-02-03T00:01:43.116Z,100392.73
2019-02-03T00:04:13.995Z,100390.34
2019-02-03T00:06:45.184Z,100390.34
2019-02-03T00:09:18.063Z,100399.54
2019-02-03T00:11:48.922Z,100393.45
2019-02-03T00:14:19.547Z,100394.58
2019-02-03T00:16:51.350Z,100396.09
2019-02-03T00:19:21.852Z,100396.09
2019-02-03T00:21:52.967Z,100397.00
2019-02-03T00:24:23.603Z,100397.00
2019-02-03T00:26:54.338Z,100393.64
2019-02-03T00:29:24.918Z,100399.79
2019-02-03T00:31:57.040Z,100402.81
2019-02-03T00:34:27.909Z,100394.55
2019-02-03T00:36:58.405Z,100403.48
2019-02-03T00:39:29.218Z,100402.36
2019-02-03T00:42:00.478Z,100400.52
2019-02-03T00:44:31.940Z,100388.44
2019-02-03T00:47:03.793Z,100385.17
2019-02-03T00:49:34.140Z,100393.85
2019-02-03T00:52:04.568Z,100393.85
2019-02-03T00:54:35.698Z,100394.81
2019-02-03T00:57:08.353Z,100392.41
2019-02-03T00:59:39.065Z,100377.44
2019-02-03T01:02:09.533Z,100377.44
2019-02-03T01:04:40.403Z,100390.66
2019-02-03T01:07:11.103Z,100390.66
2019-02-03T01:09:41.873Z,100378.64
2019-02-03T01:12:12.318Z,100381.06
2019-02-03T01:14:43.064Z,100381.06
2019-02-03T01:17:13.504Z,100375.75
2019-02-03T01:19:43.721Z,100375.75
2019-02-03T01:22:14.533Z,100377.15
2019-02-03T01:24:45.092Z,100373.92
2019-02-03T01:27:15.801Z,100371.97
2019-02-03T01:29:47.431Z,100356.11
2019-02-03T01:32:18.085Z,100356.11
2019-02-03T01:34:48.688Z,100355.19
2019-02-03T01:37:19.169Z,100361.91
2019-02-03T01:39:52.062Z,100362.27
2019-02-03T01:42:22.708Z,100358.16
2019-02-03T01:44:53.249Z,100359.39
2019-02-03T01:47:24.701Z,100356.50
2019-02-03T01:49:55.115Z,100356.50
2019-02-03T01:52:25.163Z,100345.87
2019-02-03T01:54:55.778Z,100350.05
2019-02-03T01:57:26.077Z,100334.80
2019-02-03T01:59:56.474Z,100343.73
2019-02-03T02:02:27.147Z,100343.73
2019-02-03T02:04:57.659Z,100338.45
2019-02-03T02:07:28.440Z,100345.27
2019-02-03T02:09:58.687Z,100338.26
2019-02-03T02:12:29.136Z,100336.98
2019-02-03T02:15:00.739Z,100343.85
2019-02-03T02:17:31.418Z,100353.35
2019-02-03T02:20:01.986Z,100353.35
2019-02-03T02:22:33.274Z,100354.85
2019-02-03T02:25:03.727Z,100354.85
2019-02-03T02:27:34.295Z,100349.44
2019-02-03T02:30:06.601Z,100349.44
2019-02-03T02:32:37.334Z,100364.22
2019-02-03T02:35:09.109Z,100361.68
2019-02-03T02:37:39.722Z,100365.68
2019-02-03T02:40:13.887Z,100372.16
2019-02-03T02:42:44.690Z,100370.02
2019-02-03T02:45:15.785Z,100366.48
2019-02-03T02:47:46.712Z,100359.55
2019-02-03T02:50:39.159Z,100370.62
2019-02-03T02:53:10.323Z,100366.23
2019-02-03T02:55:41.838Z,100372.03
2019-02-03T02:58:12.985Z,100371.72
2019-02-03T03:00:43.638Z,100371.41
2019-02-03T03:03:14.863Z,100376.88
2019-02-03T03:05:45.471Z,100369.44
2019-02-03T03:08:19.055Z,100371.05
2019-02-03T03:10:48.347Z,100365.66
2019-02-03T03:13:18.924Z,100373.83
2019-02-03T03:15:50.656Z,100376.06
2019-02-03T03:18:23.214Z,100373.64
2019-02-03T03:20:53.773Z,100373.95
2019-02-03T03:23:24.835Z,100384.48
2019-02-03T03:25:55.285Z,100384.12
2019-02-03T03:28:25.619Z,100376.50
2019-02-03T03:30:56.621Z,100362.61
2019-02-03T03:33:27.303Z,100376.50
2019-02-03T03:35:59.231Z,100376.55
2019-02-03T03:38:32.070Z,100384.94
2019-02-03T03:41:02.250Z,100378.75
2019-02-03T03:43:32.871Z,100387.17
2019-02-03T03:46:06.506Z,100382.92
2019-02-03T03:48:37.501Z,100377.95
2019-02-03T03:51:08.675Z,100380.28
2019-02-03T03:53:39.388Z,100382.62
2019-02-03T03:56:10.919Z,100382.84
2019-02-03T03:58:41.806Z,100381.01
2019-02-03T04:01:12.935Z,100379.17
2019-02-03T04:03:43.473Z,100381.41
2019-02-03T04:06:13.809Z,100383.06
2019-02-03T04:08:45.665Z,100387.19
2019-02-03T04:11:16.404Z,100386.20
2019-02-03T04:13:46.986Z,100381.64
2019-02-03T04:16:18.964Z,100388.53
2019-02-03T04:18:49.835Z,100392.30
2019-02-03T04:21:20.886Z,100386.83
2019-02-03T04:23:51.630Z,100384.31
2019-02-03T04:26:22.493Z,100396.73
2019-02-03T04:28:53.140Z,100401.80
2019-02-03T04:31:23.872Z,100399.28
2019-02-03T04:33:54.690Z,100391.76
2019-02-03T04:36:25.304Z,100390.72
2019-02-03T04:38:58.277Z,100402.33
2019-02-03T04:41:28.448Z,100392.69
2019-02-03T04:43:59.379Z,100399.63
2019-02-03T04:46:29.794Z,100404.65
2019-02-03T04:49:00.408Z,100395.73
2019-02-03T04:51:31.061Z,100398.69
2019-02-03T04:54:01.694Z,100398.33
2019-02-03T04:56:32.493Z,100395.07
2019-02-03T04:59:03.222Z,100399.64
2019-02-03T05:01:33.972Z,100396.55
2019-02-03T05:04:05.002Z,100398.71
2019-02-03T05:06:35.843Z,100391.94
2019-02-03T05:09:11.136Z,100391.31
2019-02-03T05:11:41.820Z,100390.50
2019-02-03T05:14:12.646Z,100391.36
2019-02-03T05:16:44.102Z,100396.06
2019-02-03T05:19:14.607Z,100387.59
2019-02-03T05:21:45.341Z,100388.92
2019-02-03T05:24:16.199Z,100390.77
2019-02-03T05:26:46.733Z,100394.58
2019-02-03T05:29:17.352Z,100387.35
2019-02-03T05:31:48.446Z,100392.70
2019-02-03T05:34:19.491Z,100392.70
2019-02-03T05:36:50.004Z,100398.91
2019-02-03T05:39:24.905Z,100398.91
2019-02-03T05:41:53.135Z,100397.75
2019-02-03T05:44:25.062Z,100397.75
2019-02-03T05:46:55.549Z,100399.72
2019-02-03T05:49:25.963Z,100408.23
2019-02-03T05:51:56.669Z,100412.52
2019-02-03T05:54:27.077Z,100412.52
2019-02-03T05:56:57.978Z,100422.50
2019-02-03T05:59:28.523Z,100422.50
2019-02-03T06:01:59.356Z,100425.38
2019-02-03T06:04:29.926Z,100425.38
2019-02-03T06:07:00.535Z,100425.00
2019-02-03T06:09:36.714Z,100431.61
2019-02-03T06:12:03.320Z,100436.34
2019-02-03T06:14:33.832Z,100424.27
2019-02-03T06:17:05.952Z,100424.27
2019-02-03T06:19:37.785Z,100432.08
2019-02-03T06:22:09.006Z,100446.39
2019-02-03T06:24:40.118Z,100448.34
2019-02-03T06:27:10.476Z,100454.38
2019-02-03T06:29:41.306Z,100454.41
2019-02-03T06:32:12.173Z,100459.80
2019-02-03T06:34:42.804Z,100454.78
2019-02-03T06:37:13.419Z,100454.78
2019-02-03T06:39:48.593Z,100447.81
2019-02-03T06:42:16.708Z,100445.67
2019-02-03T06:44:47.436Z,100455.64
2019-02-03T06:47:26.594Z,100460.86
2019-02-03T06:49:57.229Z,100454.16
2019-02-03T06:52:27.733Z,100461.68
2019-02-03T06:54:58.495Z,100453.72
2019-02-03T06:57:29.395Z,100458.06
2019-02-03T06:59:59.953Z,100461.92
2019-02-03T07:02:30.433Z,100463.73
2019-02-03T07:05:01.215Z,100467.91
2019-02-03T07:07:35.628Z,100458.47
2019-02-03T07:10:08.372Z,100457.73
2019-02-03T07:12:39.079Z,100463.98
2019-02-03T07:15:10.572Z,100464.43
2019-02-03T07:17:42.336Z,100467.09
2019-02-03T07:20:15.665Z,100465.83
2019-02-03T07:22:46.606Z,100468.86
2019-02-03T07:25:17.045Z,100479.69
2019-02-03T07:27:47.672Z,100477.40
2019-02-03T07:30:19.422Z,100478.22
2019-02-03T07:32:52.398Z,100482.89
2019-02-03T07:35:24.441Z,100483.03
2019-02-03T07:37:56.039Z,100483.72
2019-02-03T07:40:26.919Z,100485.84
2019-02-03T07:42:57.650Z,100486.62
2019-02-03T07:45:28.664Z,100485.61
2019-02-03T07:47:58.982Z,100479.75
2019-02-03T07:50:29.514Z,100479.66
2019-02-03T07:52:59.731Z,100482.93
2019-02-03T07:55:30.488Z,100482.47
2019-02-03T07:58:01.452Z,100476.30
2019-02-03T08:00:31.862Z,100480.15
2019-02-03T08:03:02.225Z,100484.58
2019-02-03T08:05:32.793Z,100484.58
2019-02-03T08:08:03.755Z,100487.39
2019-02-03T08:10:34.421Z,100481.61
2019-02-03T08:13:05.548Z,100475.72
2019-02-03T08:15:36.225Z,100482.80
2019-02-03T08:18:09.772Z,100486.08
2019-02-03T08:20:40.432Z,100478.48
2019-02-03T08:23:11.192Z,100480.87
2019-02-03T08:25:43.192Z,100494.63
2019-02-03T08:28:13.927Z,100489.97
2019-02-03T08:30:44.686Z,100497.50
2019-02-03T08:33:15.466Z,100494.32
2019-02-03T08:35:46.163Z,100489.77
2019-02-03T08:38:16.765Z,100492.48
2019-02-03T08:40:48.135Z,100489.80
2019-02-03T08:43:21.789Z,100492.55
2019-02-03T08:45:53.898Z,100499.92
2019-02-03T08:48:25.567Z,100504.53
2019-02-03T08:50:56.358Z,100504.20
2019-02-03T08:53:27.354Z,100503.09
2019-02-03T08:55:58.155Z,100504.66
2019-02-03T08:58:29.564Z,100497.42
2019-02-03T09:01:01.810Z,100502.66
2019-02-03T09:03:33.050Z,100508.00
2019-02-03T09:06:04.049Z,100502.77
2019-02-03T09:08:34.676Z,100506.80
2019-02-03T09:11:05.425Z,100497.26
2019-02-03T09:13:36.902Z,100510.45
2019-02-03T09:16:07.597Z,100509.02
2019-02-03T09:18:39.390Z,100505.44
2019-02-03T09:21:09.790Z,100507.76
2019-02-03T09:23:40.241Z,100504.58
2019-02-03T09:26:11.299Z,100500.47
2019-02-03T09:28:41.927Z,100499.11
2019-02-03T09:31:12.912Z,100489.72
2019-02-03T09:33:45.940Z,100493.39
2019-02-03T09:36:16.517Z,100494.22
2019-02-03T09:38:47.011Z,100490.70
2019-02-03T09:41:23.026Z,100492.26
2019-02-03T09:43:58.135Z,100487.12
2019-02-03T09:46:29.487Z,100497.26
2019-02-03T09:49:00.056Z,100486.47
2019-02-03T09:51:33.286Z,100484.85
2019-02-03T09:54:05.001Z,100476.88
2019-02-03T09:56:38.957Z,100481.56
2019-02-03T09:59:09.886Z,100478.48
2019-02-03T10:01:40.565Z,100474.66
2019-02-03T10:04:11.297Z,100475.38
2019-02-03T10:06:42.341Z,100474.48
2019-02-03T10:09:12.960Z,100478.84
2019-02-03T10:11:43.836Z,100472.09
2019-02-03T10:14:13.966Z,100467.72
2019-02-03T10:16:47.469Z,100467.48
2019-02-03T10:19:18.220Z,100462.14
2019-02-03T10:21:49.018Z,100464.25
2019-02-03T10:24:20.099Z,100458.27
2019-02-03T10:26:51.349Z,100454.97
2019-02-03T10:29:21.590Z,100458.39
2019-02-03T10:31:52.298Z,100456.93
2019-02-03T10:34:22.937Z,100459.03
2019-02-03T10:36:53.344Z,100454.55
2019-02-03T10:39:25.148Z,100448.62
2019-02-03T10:41:56.028Z,100447.67
2019-02-03T10:44:26.662Z,100451.27
2019-02-03T10:46:57.490Z,100444.51
2019-02-03T10:49:28.249Z,100450.67
2019-02-03T10:51:59.388Z,100448.61
2019-02-03T10:54:30.664Z,100439.11
2019-02-03T10:57:01.959Z,100445.70
2019-02-03T10:59:32.542Z,100449.88
2019-02-03T11:02:04.029Z,100450.77
2019-02-03T11:04:35.393Z,100448.45
2019-02-03T11:07:06.484Z,100443.56
2019-02-03T11:09:37.000Z,100437.34
2019-02-03T11:12:07.691Z,100435.78
2019-02-03T11:14:38.671Z,100444.06
2019-02-03T11:17:10.435Z,100440.18
2019-02-03T11:19:43.454Z,100438.80
2019-02-03T11:22:14.949Z,100430.32
2019-02-03T11:24:45.755Z,100425.23
2019-02-03T11:27:16.339Z,100426.77
2019-02-03T11:29:47.089Z,100428.09
2019-02-03T11:32:18.150Z,100431.69
2019-02-03T11:34:48.546Z,100425.60
2019-02-03T11:37:21.010Z,100420.36
2019-02-03T11:39:51.714Z,100414.23
2019-02-03T11:42:22.193Z,100427.92
2019-02-03T11:44:53.110Z,100430.78
2019-02-03T11:47:23.848Z,100424.46
2019-02-03T11:49:54.486Z,100430.66
2019-02-03T11:52:25.719Z,100427.97
2019-02-03T11:54:56.725Z,100426.16
2019-02-03T11:57:27.589Z,100418.67
2019-02-03T11:59:58.387Z,100420.45
2019-02-03T12:02:29.342Z,100419.60
2019-02-03T12:04:59.486Z,100424.53
2019-02-03T12:07:30.055Z,100422.40
2019-02-03T12:10:00.430Z,100426.73
2019-02-03T12:12:30.980Z,100429.00
2019-02-03T12:15:54.479Z,100426.51
2019-02-03T12:18:24.999Z,100419.78
2019-02-03T12:20:57.084Z,100420.30
2019-02-03T12:23:27.553Z,100421.26
2019-02-03T12:25:58.068Z,100415.66
2019-02-03T12:28:29.933Z,100413.55
2019-02-03T12:31:01.581Z,100419.41
2019-02-03T12:33:33.422Z,100427.64
2019-02-03T12:36:04.552Z,100424.59
2019-02-03T12:38:37.599Z,100424.63
2019-02-03T12:41:08.566Z,100430.55
2019-02-03T12:43:40.154Z,100435.81
2019-02-03T12:46:10.915Z,100431.53
2019-02-03T12:48:41.617Z,100434.77
2019-02-03T12:51:12.529Z,100428.79
2019-02-03T12:53:44.268Z,100432.04
2019-02-03T12:56:15.355Z,100439.20
2019-02-03T12:58:47.514Z,100441.87
2019-02-03T13:01:20.829Z,100446.66
2019-02-03T13:03:51.681Z,100450.95
2019-02-03T13:06:23.411Z,100447.02
2019-02-03T13:08:53.828Z,100441.56
2019-02-03T13:11:24.770Z,100455.00
2019-02-03T13:13:55.768Z,100449.34
2019-02-03T13:16:26.146Z,100467.09
2019-02-03T13:18:57.343Z,100448.65
2019-02-03T13:21:29.002Z,100455.38
2019-02-03T13:23:59.863Z,100453.91
2019-02-03T13:26:31.047Z,100455.33
2019-02-03T13:29:01.398Z,100459.31
2019-02-03T13:31:31.919Z,100448.15
2019-02-03T13:34:03.725Z,100448.97
2019-02-03T13:36:35.185Z,100449.25
2019-02-03T13:39:09.025Z,100449.30
2019-02-03T13:41:40.068Z,100449.12
2019-02-03T13:44:10.427Z,100450.08
2019-02-03T13:46:40.952Z,100447.70
2019-02-03T13:49:11.398Z,100452.30
2019-02-03T13:51:42.112Z,100449.58
2019-02-03T13:54:12.902Z,100451.30
2019-02-03T13:56:43.510Z,100451.40
2019-02-03T13:59:13.977Z,100452.70
2019-02-03T14:01:44.493Z,100457.15
2019-02-03T14:04:14.984Z,100459.93
2019-02-03T14:06:45.476Z,100460.20
2019-02-03T14:11:45.604Z,100472.67
2019-02-03T14:14:16.122Z,100467.50
2019-02-03T14:16:46.719Z,100466.72
2019-02-03T14:19:17.433Z,100463.39
2019-02-03T14:21:49.452Z,100460.03
2019-02-03T14:24:19.993Z,100464.31
2019-02-03T14:26:51.317Z,100459.60
2019-02-03T14:29:22.009Z,100460.91
2019-02-03T14:31:52.409Z,100456.98
2019-02-03T14:34:22.796Z,100463.13
2019-02-03T14:36:54.202Z,100463.26
2019-02-03T14:39:25.192Z,100457.42
2019-02-03T14:41:55.913Z,100463.17
2019-02-03T14:44:26.898Z,100467.94
2019-02-03T14:46:57.529Z,100464.37
2019-02-03T14:49:28.411Z,100467.55
2019-02-03T14:51:59.153Z,100468.64
2019-02-03T14:54:29.624Z,100468.54
2019-02-03T14:57:00.520Z,100472.66
2019-02-03T14:59:32.390Z,100483.58
2019-02-03T15:02:03.769Z,100476.56
2019-02-03T15:04:35.250Z,100484.44
2019-02-03T15:07:06.622Z,100488.11
2019-02-03T15:09:37.676Z,100481.81
2019-02-03T15:12:08.336Z,100480.51
2019-02-03T15:14:37.679Z,100481.25
2019-02-03T15:17:08.740Z,100479.69
2019-02-03T15:19:40.452Z,100476.05
2019-02-03T15:22:12.005Z,100483.41
2019-02-03T15:24:43.229Z,100480.05
2019-02-03T15:27:14.034Z,100479.15
2019-02-03T15:29:43.178Z,100480.09
2019-02-03T15:32:13.927Z,100479.25
2019-02-03T15:34:44.418Z,100483.72
2019-02-03T15:37:15.021Z,100495.20
2019-02-03T15:39:45.376Z,100507.22
2019-02-03T15:42:17.199Z,100502.03
2019-02-03T15:44:49.819Z,100502.03
2019-02-03T15:47:20.226Z,100499.48
2019-02-03T15:49:51.350Z,100504.14
2019-02-03T15:52:21.786Z,100504.14
2019-02-03T15:54:52.943Z,100506.20
2019-02-03T15:57:24.067Z,100506.29
2019-02-03T15:59:55.206Z,100506.29
2019-02-03T16:02:27.470Z,100510.58
2019-02-03T16:04:57.747Z,100498.34
2019-02-03T16:07:29.250Z,100498.34
2019-02-03T16:09:59.716Z,100522.36
2019-02-03T16:12:30.289Z,100520.11
2019-02-03T16:15:01.159Z,100520.50
2019-02-03T16:17:32.101Z,100516.41
2019-02-03T16:20:02.550Z,100526.53
2019-02-03T16:22:34.577Z,100526.53
2019-02-03T16:25:06.128Z,100511.55
2019-02-03T16:27:37.248Z,100516.00
2019-02-03T16:30:09.573Z,100507.50
2019-02-03T16:32:39.755Z,100524.73
2019-02-03T16:35:11.214Z,100524.81
2019-02-03T16:37:41.890Z,100524.81
2019-02-03T16:40:18.143Z,100522.13
2019-02-03T16:42:49.303Z,100522.52
2019-02-03T16:45:19.917Z,100515.83
2019-02-03T16:47:51.149Z,100515.83
2019-02-03T16:50:27.952Z,100514.50
2019-02-03T16:52:59.417Z,100522.95
2019-02-03T16:55:30.849Z,100522.95
2019-02-03T16:58:01.738Z,100521.47
2019-02-03T17:00:34.080Z,100524.25
2019-02-03T17:03:05.558Z,100524.25
2019-02-03T17:05:36.616Z,100520.98
2019-02-03T17:08:08.371Z,100521.84
2019-02-03T17:10:39.655Z,100534.30
2019-02-03T17:13:10.709Z,100535.98
2019-02-03T17:15:54.476Z,100529.47
2019-02-03T17:18:25.412Z,100531.87
2019-02-03T17:21:02.179Z,100533.21
2019-02-03T17:23:29.959Z,100527.80
2019-02-03T17:26:04.215Z,100522.48
2019-02-03T17:28:34.821Z,100521.47
2019-02-03T17:31:05.527Z,100517.95
2019-02-03T17:33:38.038Z,100523.97
2019-02-03T17:36:09.197Z,100516.44
2019-02-03T17:38:39.689Z,100511.03
2019-02-03T17:41:11.180Z,100521.28
2019-02-03T17:43:42.274Z,100521.28
2019-02-03T17:46:13.674Z,100522.59
2019-02-03T17:48:44.191Z,100524.83
2019-02-03T17:51:15.122Z,100512.34
2019-02-03T17:53:45.820Z,100512.34
2019-02-03T17:56:16.737Z,100517.00
2019-02-03T17:58:47.375Z,100517.00
2019-02-03T18:01:18.335Z,100510.40
2019-02-03T18:03:49.470Z,100508.98
2019-02-03T18:06:20.214Z,100515.67
2019-02-03T18:08:50.700Z,100520.29
2019-02-03T18:11:21.996Z,100517.83
2019-02-03T18:13:54.254Z,100516.16
2019-02-03T18:16:24.845Z,100515.41
2019-02-03T18:18:56.159Z,100521.63
2019-02-03T18:21:26.646Z,100522.27
2019-02-03T18:23:58.352Z,100526.20
2019-02-03T18:26:29.217Z,100527.00
2019-02-03T18:28:59.839Z,100532.88
2019-02-03T18:31:30.662Z,100532.97
2019-02-03T18:34:01.139Z,100524.25
2019-02-03T18:36:32.999Z,100528.96
2019-02-03T18:39:06.093Z,100536.52
2019-02-03T18:41:36.833Z,100525.27
2019-02-03T18:44:04.829Z,100525.64
2019-02-03T18:46:35.689Z,100536.02
2019-02-03T18:49:06.701Z,100525.16
2019-02-03T18:51:37.491Z,100524.17
2019-02-03T18:54:08.551Z,100528.02
2019-02-03T18:56:39.526Z,100531.38
2019-02-03T18:59:10.743Z,100533.81
2019-02-03T19:01:41.361Z,100533.14
2019-02-03T19:04:13.696Z,100540.62
2019-02-03T19:06:45.995Z,100541.31
2019-02-03T19:09:16.888Z,100541.77
2019-02-03T19:11:47.974Z,100536.00
2019-02-03T19:14:20.326Z,100545.55
2019-02-03T19:16:51.327Z,100542.77
2019-02-03T19:19:21.916Z,100550.81
2019-02-03T19:21:52.761Z,100545.87
2019-02-03T19:24:24.495Z,100547.64
2019-02-03T19:26:55.124Z,100555.66
2019-02-03T19:29:26.041Z,100557.11
2019-02-03T19:31:56.673Z,100546.45
2019-02-03T19:34:28.895Z,100557.03
2019-02-03T19:39:29.196Z,100551.81
2019-02-03T19:42:00.270Z,100559.44
2019-02-03T19:44:31.038Z,100555.81
2019-02-03T19:47:01.526Z,100556.70
2019-02-03T19:49:32.585Z,100560.31
2019-02-03T19:52:03.720Z,100561.72
2019-02-03T19:54:35.258Z,100560.21
2019-02-03T19:57:06.184Z,100570.78
2019-02-03T19:59:46.526Z,100568.16
2019-02-03T20:02:09.662Z,100572.06
2019-02-03T20:04:40.536Z,100569.05
2019-02-03T20:07:11.596Z,100565.66
2019-02-03T20:09:42.560Z,100561.81
2019-02-03T20:12:14.339Z,100558.70
2019-02-03T20:14:45.319Z,100565.95
2019-02-03T20:17:16.174Z,100566.39
2019-02-03T20:19:48.152Z,100574.91
2019-02-03T20:22:20.433Z,100578.83
2019-02-03T20:24:51.917Z,100573.67
2019-02-03T20:27:22.691Z,100576.75
2019-02-03T20:29:53.468Z,100571.84
2019-02-03T20:32:24.512Z,100571.48
2019-02-03T20:34:55.254Z,100577.52
2019-02-03T20:37:26.704Z,100573.16
2019-02-03T20:40:02.006Z,100570.33
2019-02-03T20:42:29.998Z,100576.66
2019-02-03T20:45:00.722Z,100572.91
2019-02-03T20:47:31.892Z,100573.08
2019-02-03T20:50:02.761Z,100576.29
2019-02-03T20:52:33.647Z,100573.56
2019-02-03T20:55:04.370Z,100571.96
2019-02-03T20:57:35.605Z,100574.08
2019-02-03T21:00:08.576Z,100573.27
2019-02-03T21:02:39.532Z,100572.31
2019-02-03T21:05:10.579Z,100577.84
2019-02-03T21:07:42.174Z,100584.45
2019-02-03T21:10:15.204Z,100582.68
2019-02-03T21:12:46.624Z,100593.97
2019-02-03T21:15:19.471Z,100590.55
2019-02-03T21:17:51.136Z,100586.69
2019-02-03T21:20:23.752Z,100589.32
2019-02-03T21:22:54.449Z,100585.05
2019-02-03T21:25:26.457Z,100592.68
2019-02-03T21:27:57.540Z,100589.93
2019-02-03T21:30:33.818Z,100590.17
2019-02-03T21:33:05.150Z,100591.15
2019-02-03T21:35:36.181Z,100587.83
2019-02-03T21:38:09.060Z,100591.48
2019-02-03T21:40:39.885Z,100595.88
2019-02-03T21:43:10.614Z,100593.47
2019-02-03T21:45:45.039Z,100596.18
2019-02-03T21:48:13.795Z,100605.61
2019-02-03T21:50:44.304Z,100610.00
2019-02-03T21:53:15.372Z,100616.51
2019-02-03T21:55:45.774Z,100622.06
2019-02-03T21:58:16.463Z,100624.44
2019-02-03T22:00:47.303Z,100623.80
2019-02-03T22:03:17.868Z,100625.84
2019-02-03T22:05:48.583Z,100627.47
2019-02-03T22:08:19.481Z,100626.27
2019-02-03T22:10:49.870Z,100627.97
2019-02-03T22:13:20.878Z,100625.80
2019-02-03T22:15:55.830Z,100619.52
2019-02-03T22:18:24.254Z,100614.94
2019-02-03T22:20:54.737Z,100636.30
2019-02-03T22:23:25.247Z,100632.19
2019-02-03T22:25:56.479Z,100638.27
2019-02-03T22:28:27.131Z,100632.72
2019-02-03T22:30:57.815Z,100635.91
2019-02-03T22:33:28.930Z,100638.81
2019-02-03T22:36:02.563Z,100637.42
2019-02-03T22:38:33.282Z,100632.47
2019-02-03T22:41:03.914Z,100632.19
2019-02-03T22:43:34.427Z,100639.83
2019-02-03T22:46:07.278Z,100641.34
2019-02-03T22:48:37.804Z,100637.31
2019-02-03T22:51:10.627Z,100640.49
2019-02-03T22:53:41.148Z,100640.03
2019-02-03T22:56:11.732Z,100636.11
2019-02-03T22:58:43.824Z,100634.84
2019-02-03T23:01:23.931Z,100637.59
2019-02-03T23:04:07.926Z,100632.92
2019-02-03T23:06:38.723Z,100633.87
2019-02-03T23:09:32.862Z,100639.09
2019-02-03T23:12:05.502Z,100641.72
2019-02-03T23:14:36.286Z,100641.52
2019-02-03T23:17:08.866Z,100644.58
2019-02-03T23:19:39.337Z,100648.40
2019-02-03T23:22:09.860Z,100648.23
2019-02-03T23:24:40.517Z,100644.58
2019-02-03T23:27:12.739Z,100646.59
2019-02-03T23:29:43.579Z,100639.02
2019-02-03T23:32:14.244Z,100643.79
2019-02-03T23:34:44.562Z,100648.86
2019-02-03T23:37:15.582Z,100647.07
2019-02-03T23:39:46.740Z,100653.14
2019-02-03T23:42:17.702Z,100649.77
2019-02-03T23:44:48.348Z,100650.52
2019-02-03T23:47:18.929Z,100654.15
2019-02-03T23:49:49.588Z,100657.45
2019-02-03T23:52:20.704Z,100656.22
2019-02-03T23:54:51.274Z,100658.56
2019-02-03T23:57:22.136Z,100656.16
2019-02-03T23:59:53.142Z,100668.75
